Gibson, Iowa
Current Conditions -  °F | °C
As of 5:15 PM on Saturday 25 Oct 2014 (Local Time) from KOOA Reporting Station
Clear Clear  
Wind Chill: 69°   Ceiling: Unl
Heat Index: 69°   Visibility: 10mi
Dew Point: 37°   Wind: 5mph
Humidity: 30%   Direction: 350°N
Pressure: 30.05"   Gusts: NA
Location:  41.48°N, 92.39°W
Report Text: KOOA 252215Z AUTO 35004KT 10SM CLR 21/03 A3005 RMK AO2 T02070025
Loading
Personal Weather Stations






























Interactive Weather Map
Tropical Storm Tracking
New forecast layout! Learn more

10-Day Weather Forecast

Advertisements
Track Severe Weather on mobile